createdAt,value
2022-08-17T00:02:26.058Z,19.41
2022-08-17T00:07:29.888Z,19.03
2022-08-17T00:12:41.740Z,18.95
2022-08-17T00:17:49.050Z,18.74
2022-08-17T00:23:02.455Z,19.02
2022-08-17T00:28:05.969Z,18.61
2022-08-17T00:33:16.334Z,18.71
2022-08-17T00:38:19.988Z,18.69
2022-08-17T00:43:33.970Z,18.59
2022-08-17T00:48:37.596Z,18.45
2022-08-17T00:53:44.379Z,18.82
2022-08-17T00:58:48.253Z,18.43
2022-08-17T01:04:00.053Z,18.66
2022-08-17T01:09:04.331Z,18.52
2022-08-17T01:14:09.719Z,18.51
2022-08-17T01:19:19.002Z,18.62
2022-08-17T01:24:22.291Z,18.50
2022-08-17T01:29:26.628Z,18.38
2022-08-17T01:34:42.604Z,18.92
2022-08-17T01:40:26.419Z,18.52
2022-08-17T01:45:34.475Z,18.45
2022-08-17T01:50:38.838Z,18.73
2022-08-17T01:55:49.612Z,18.30
2022-08-17T02:01:00.913Z,18.38
2022-08-17T02:06:27.260Z,18.06
2022-08-17T02:11:29.999Z,18.02
2022-08-17T02:16:37.575Z,18.40
2022-08-17T02:21:42.032Z,18.07
2022-08-17T02:26:44.808Z,17.93
2022-08-17T02:31:48.998Z,18.36
2022-08-17T02:36:53.814Z,17.90
2022-08-17T02:42:03.469Z,17.49
2022-08-17T02:47:06.941Z,17.82
2022-08-17T02:52:09.894Z,18.00
2022-08-17T02:57:12.719Z,17.85
2022-08-17T03:02:15.504Z,17.55
2022-08-17T03:07:18.571Z,17.56
2022-08-17T03:12:21.216Z,17.35
2022-08-17T03:17:23.917Z,17.45
2022-08-17T03:22:36.855Z,17.46
2022-08-17T03:27:41.976Z,17.06
2022-08-17T03:32:48.191Z,17.30
2022-08-17T03:38:00.434Z,17.21
2022-08-17T03:43:10.179Z,17.32
2022-08-17T03:48:31.727Z,17.63
2022-08-17T03:53:53.172Z,17.13
2022-08-17T03:58:56.104Z,16.82
2022-08-17T04:03:58.753Z,16.89
2022-08-17T04:09:01.492Z,17.03
2022-08-17T04:14:05.630Z,17.26
2022-08-17T04:19:08.576Z,17.03
2022-08-17T04:24:11.306Z,16.97
2022-08-17T04:29:14.655Z,17.23
2022-08-17T04:34:19.802Z,17.35
2022-08-17T04:39:25.823Z,17.13
2022-08-17T04:44:37.409Z,17.35
2022-08-17T04:49:40.714Z,17.73
2022-08-17T04:54:43.411Z,17.67
2022-08-17T04:59:46.078Z,17.69
2022-08-17T05:04:48.695Z,17.67
2022-08-17T05:09:51.415Z,17.49
2022-08-17T05:14:54.128Z,18.13
2022-08-17T05:19:56.833Z,18.24
2022-08-17T05:24:59.453Z,18.30
2022-08-17T05:30:05.725Z,18.58
2022-08-17T05:35:10.261Z,18.84
2022-08-17T05:40:14.217Z,18.88
2022-08-17T05:45:32.128Z,18.49
2022-08-17T05:50:51.977Z,19.33
2022-08-17T05:56:29.431Z,19.41
2022-08-17T06:01:45.026Z,19.58
2022-08-17T06:06:55.724Z,19.77
2022-08-17T06:12:14.367Z,19.89
2022-08-17T06:17:25.336Z,20.21
2022-08-17T06:22:34.059Z,20.37
2022-08-17T06:27:44.046Z,20.88
2022-08-17T06:32:49.977Z,21.31
2022-08-17T06:37:58.503Z,21.73
2022-08-17T06:43:22.363Z,22.14
2022-08-17T06:48:36.607Z,22.50
2022-08-17T06:53:46.509Z,22.77
2022-08-17T06:58:50.431Z,22.92
2022-08-17T07:03:55.410Z,23.14
2022-08-17T07:09:26.823Z,23.38
2022-08-17T07:14:39.185Z,23.37
2022-08-17T07:19:46.209Z,23.85
2022-08-17T07:25:01.766Z,23.86
2022-08-17T07:30:11.304Z,24.42
2022-08-17T07:35:40.856Z,24.88
2022-08-17T07:41:13.199Z,25.04
2022-08-17T07:46:46.370Z,25.02
2022-08-17T07:51:49.281Z,25.83
2022-08-17T07:56:58.286Z,25.91
2022-08-17T08:02:17.017Z,25.86
2022-08-17T08:07:21.486Z,25.50
2022-08-17T08:12:30.579Z,26.23
2022-08-17T08:17:51.011Z,26.09
2022-08-17T08:23:35.708Z,27.02
2022-08-17T08:28:52.636Z,27.53
2022-08-17T08:35:00.659Z,27.18
2022-08-17T08:39:52.017Z,28.98
2022-08-17T08:45:25.162Z,27.51
2022-08-17T08:55:43.348Z,27.19
2022-08-17T09:00:49.373Z,28.00
2022-08-17T09:06:04.637Z,27.54
2022-08-17T09:12:01.238Z,28.28
2022-08-17T09:21:58.634Z,28.35
2022-08-17T09:31:56.057Z,28.03
2022-08-17T09:41:49.611Z,28.52
2022-08-17T09:51:45.894Z,28.36
2022-08-17T09:57:31.381Z,28.84
2022-08-17T10:12:53.223Z,29.56
2022-08-17T10:18:13.595Z,28.96
2022-08-17T10:33:53.052Z,29.39
2022-08-17T10:56:47.732Z,29.56
2022-08-17T11:08:13.237Z,29.91
2022-08-17T11:18:40.154Z,29.35
2022-08-17T11:28:36.674Z,30.23
2022-08-17T11:33:42.619Z,29.81
2022-08-17T11:39:02.099Z,29.12
2022-08-17T11:44:11.429Z,29.80
2022-08-17T11:49:49.350Z,30.32
2022-08-17T11:54:52.519Z,29.82
2022-08-17T12:00:00.631Z,29.89
2022-08-17T12:05:13.234Z,29.98
2022-08-17T12:10:21.279Z,29.60
2022-08-17T12:15:38.182Z,29.81
2022-08-17T12:20:45.287Z,29.88
2022-08-17T12:26:08.683Z,29.47
2022-08-17T12:31:35.549Z,30.06
2022-08-17T12:36:41.088Z,29.61
2022-08-17T12:41:48.462Z,29.96
2022-08-17T12:46:56.325Z,30.06
2022-08-17T13:05:39.842Z,30.20
2022-08-17T13:17:11.240Z,30.22
2022-08-17T13:22:44.256Z,29.96
2022-08-17T13:27:51.465Z,30.66
2022-08-17T13:40:12.226Z,30.55
2022-08-17T13:52:02.826Z,30.49
2022-08-17T13:57:08.330Z,30.60
2022-08-17T14:02:12.391Z,30.69
2022-08-17T14:07:16.828Z,30.54
2022-08-17T14:12:23.047Z,30.02
2022-08-17T14:17:27.559Z,30.50
2022-08-17T14:22:33.146Z,30.86
2022-08-17T14:27:47.479Z,30.87
2022-08-17T18:57:33.710Z,22.24
2022-08-17T19:02:51.441Z,23.02
2022-08-17T19:07:55.396Z,22.74
2022-08-17T19:13:12.890Z,22.58
2022-08-17T19:18:29.782Z,22.80
2022-08-17T19:23:53.811Z,21.98
2022-08-17T19:29:07.704Z,21.64
2022-08-17T19:34:16.747Z,22.00
2022-08-17T19:39:57.519Z,22.16
2022-08-17T19:45:37.991Z,22.26
2022-08-17T19:50:55.882Z,22.27
2022-08-17T19:56:32.525Z,22.13
2022-08-17T20:02:01.057Z,21.87
2022-08-17T20:07:10.125Z,21.03
2022-08-17T20:12:24.254Z,21.72
2022-08-17T20:17:38.857Z,22.17
2022-08-17T20:23:06.555Z,22.74
2022-08-17T20:28:35.998Z,23.30
2022-08-17T20:33:39.326Z,23.10
2022-08-17T20:38:46.855Z,23.15
2022-08-17T20:43:56.152Z,23.35
2022-08-17T20:49:25.930Z,23.36
2022-08-17T20:54:52.006Z,23.57
2022-08-17T20:59:56.123Z,23.23
2022-08-17T21:05:02.537Z,22.98
2022-08-17T21:10:18.832Z,22.86
2022-08-17T21:15:44.642Z,22.89
2022-08-17T21:21:06.216Z,23.15
2022-08-17T21:26:12.688Z,22.96
2022-08-17T21:31:39.186Z,22.52
2022-08-17T21:36:46.829Z,22.93
2022-08-17T21:41:53.938Z,22.57
2022-08-17T21:47:13.833Z,22.53
2022-08-17T21:52:21.064Z,21.95
2022-08-17T21:57:29.519Z,21.89
2022-08-17T22:02:38.104Z,21.81
2022-08-17T22:07:46.084Z,21.42
2022-08-17T22:13:16.579Z,21.28
2022-08-17T22:18:26.238Z,21.57
2022-08-17T22:23:52.403Z,21.99
2022-08-17T22:28:59.534Z,22.09
2022-08-17T22:34:05.478Z,22.08
2022-08-17T22:39:11.445Z,21.36
2022-08-17T22:44:26.791Z,21.86
2022-08-17T22:49:53.133Z,21.30
2022-08-17T22:55:33.484Z,21.07
2022-08-17T23:00:43.276Z,21.01
2022-08-17T23:06:08.964Z,21.35
2022-08-17T23:11:11.989Z,21.24
2022-08-17T23:16:15.821Z,21.05
2022-08-17T23:21:26.542Z,20.95
2022-08-17T23:26:30.999Z,20.83
2022-08-17T23:31:38.084Z,20.80
2022-08-17T23:36:42.944Z,20.66
2022-08-17T23:41:47.701Z,21.00
2022-08-17T23:46:54.786Z,20.76
2022-08-17T23:52:00.391Z,20.36
2022-08-17T23:57:05.689Z,20.31
